Home   Weather   Germany   Winsen (Luhe)   Past weeks
Flag for Germany

Past Weather in Winsen (Luhe), Lower Saxony, Germany — Yesterday and Last 2 Weeks

Currently: 77 °F. Passing clouds. (Weather station: Hamburg-Finkenwerder, Germany). See more current weather

Past Weather in Winsen (Luhe) — Graph

°F

Winsen (Luhe) Temperature Yesterday

Maximum temperature yesterday: 84 °F (at 5:50 pm)
Minimum temperature yesterday: 57 °F (at 3:20 am)
Average temperature yesterday: 71 °F

High & Low Weather Summary for the Past Weeks

 TemperatureHumidityPressure
High84 °F (Jul 14, 2:20 pm)100% (Jul 17, 2:50 am)30.21 "Hg (Jul 17, 2:50 am)
Low52 °F (Jul 20, 3:20 am)37% (Jul 24, 5:50 pm)29.71 "Hg (Jul 14, 1:50 pm)
Average68 °F74%30.00 "Hg
* Reported Jul 10 11:20 am — Jul 25 11:20 am, Winsen (Luhe). Weather by CustomWeather, © 2021

Note: Actual official high and low records may vary slightly from our data, if they occured in-between our weather recording intervals... More about our weather records

Winsen (Luhe) Weather History for the Previous 24 Hours

Scroll right to see more
 ConditionsComfort  
Time TempWeatherWind HumidityBarometerVisibility
11:20 am
Sun, Jul 25
77 °FSunny.6 mph57%29.77 "HgN/A
10:50 am75 °FPassing clouds.6 mph61%29.80 "HgN/A
10:20 am75 °FPassing clouds.7 mph61%29.80 "HgN/A
9:50 am73 °FPassing clouds.6 mph69%29.77 "HgN/A
9:20 am72 °FSunny.5 mph69%29.77 "HgN/A
8:50 am70 °FPassing clouds.8 mph73%29.77 "HgN/A
8:20 am70 °FSunny.7 mph73%29.77 "HgN/A
7:50 am68 °FPassing clouds.7 mph83%29.77 "HgN/A
7:20 am68 °FPartly sunny.6 mph83%29.77 "HgN/A
6:50 am66 °FPartly sunny.6 mph88%29.74 "HgN/A
6:20 am66 °FPartly sunny.6 mph88%29.74 "HgN/A
5:50 am66 °FPartly sunny.5 mph83%29.74 "HgN/A
5:20 am66 °FPassing clouds.6 mph83%29.74 "HgN/A
4:50 am68 °FOvercast.5 mph78%29.74 "HgN/A
4:20 am68 °FPartly cloudy.5 mph78%29.74 "HgN/A
3:50 am70 °FPassing clouds.6 mph73%29.71 "HgN/A
3:20 am70 °FPassing clouds.9 mph73%29.71 "HgN/A
2:50 am70 °FPassing clouds.10 mph73%29.71 "HgN/A
2:20 am70 °FMostly cloudy.9 mph78%29.71 "HgN/A
1:50 am70 °FOvercast.9 mph78%29.74 "HgN/A
1:20 am72 °FOvercast.8 mph73%29.74 "HgN/A
12:50 am72 °FOvercast.10 mph69%29.74 "HgN/A
12:20 am73 °FOvercast.6 mph61%29.77 "HgN/A
11:50 pm
Sat, Jul 24
75 °FMostly cloudy.6 mph57%29.77 "HgN/A
11:20 pm77 °FOvercast.8 mph51%29.77 "HgN/A
10:50 pm77 °FMostly cloudy.7 mph51%29.74 "HgN/A
10:20 pm77 °FOvercast.7 mph54%29.77 "HgN/A
9:50 pm77 °FOvercast.8 mph54%29.77 "HgN/A
9:20 pm77 °FPartly sunny.8 mph54%29.77 "HgN/A
8:50 pm81 °FMostly cloudy.8 mph45%29.77 "HgN/A
8:20 pm82 °FBroken clouds.7 mph40%29.77 "HgN/A
7:50 pm82 °FBroken clouds.7 mph40%29.77 "HgN/A
7:20 pm82 °FPartly sunny.9 mph40%29.77 "HgN/A
6:50 pm82 °FPartly sunny.8 mph40%29.77 "HgN/A
6:20 pm82 °FPassing clouds.7 mph40%29.80 "HgN/A
5:50 pm84 °FSunny.10 mph37%29.80 "HgN/A
5:20 pm82 °FSunny.8 mph42%29.80 "HgN/A
4:50 pm82 °FSunny.8 mph42%29.80 "HgN/A
4:20 pm82 °FSunny.8 mph42%29.83 "HgN/A
3:50 pm81 °FSunny.8 mph42%29.83 "HgN/A
3:20 pm81 °FSunny.7 mph42%29.83 "HgN/A
2:50 pm79 °FSunny.8 mph45%29.86 "HgN/A
1:50 pm77 °FSunny.8 mph44%29.86 "HgN/A
1:20 pm77 °FSunny.8 mph44%29.86 "HgN/A
12:50 pm75 °FSunny.7 mph47%29.89 "HgN/A
12:20 pm75 °FSunny.8 mph47%29.89 "HgN/A
Weather by CustomWeather, © 2021

See weather overview